Time;durP1;ratioP1;P1;durP2;ratioP2;P2;SDS_P1;SDS_P2;PMS_P1;PMS_P2;Temp;Humidity;BMP_temperature;BMP_pressure;BME280_temperature;BME280_humidity;BME280_pressure;Samples;Min_cycle;Max_cycle;Signal;HPM_P1;HPM_P2
2022/04/02 00:02:04;;;;;;;3.17;2.10;;;;;;;3.34;78.38;98472.38;1454445;88;21381;-82
2022/04/02 00:04:30;;;;;;;2.67;2.30;;;;;;;3.34;77.80;98468.45;1450268;89;22123;-82
2022/04/02 00:06:56;;;;;;;5.50;2.43;;;;;;;3.26;76.83;98460.53;1423977;90;22181;-81
2022/04/02 00:09:22;;;;;;;4.57;3.03;;;;;;;3.26;78.11;98460.53;1452451;89;22096;-82
2022/04/02 00:11:49;;;;;;;3.83;2.67;;;;;;;3.23;77.45;98458.22;1477854;88;22091;-84
2022/04/02 00:14:16;;;;;;;3.57;2.30;;;;;;;3.26;78.26;98461.84;1469956;88;21281;-83
2022/04/02 00:16:42;;;;;;;3.83;2.80;;;;;;;3.22;76.11;98469.63;1476493;88;22067;-83
2022/04/02 00:19:08;;;;;;;3.77;2.37;;;;;;;3.32;77.20;98470.39;1453270;89;22113;-81
2022/04/02 00:21:35;;;;;;;3.27;2.40;;;;;;;3.16;75.94;98456.20;1500708;86;22115;-84
2022/04/02 00:24:01;;;;;;;4.50;3.23;;;;;;;3.24;76.66;98465.89;1494326;86;22116;-84
2022/04/02 00:26:28;;;;;;;3.13;2.17;;;;;;;3.23;77.26;98468.67;1494029;86;23136;-83
2022/04/02 00:28:54;;;;;;;4.20;2.70;;;;;;;3.08;75.60;98467.03;1494572;86;22109;-83
2022/04/02 00:31:21;;;;;;;3.47;2.70;;;;;;;3.07;75.82;98464.91;1496704;86;22013;-84
2022/04/02 00:33:50;;;;;;;4.07;2.90;;;;;;;3.13;77.11;98456.97;1493482;86;22145;-84
2022/04/02 00:36:19;;;;;;;4.13;3.10;;;;;;;2.99;76.44;98456.97;1495955;86;22093;-85
2022/04/02 00:38:45;;;;;;;3.67;2.90;;;;;;;3.04;76.81;98459.97;1500706;86;22227;-86
2022/04/02 00:41:13;;;;;;;3.87;2.90;;;;;;;3.13;77.53;98468.23;1497230;86;22116;-86
2022/04/02 00:43:44;;;;;;;3.60;2.30;;;;;;;3.14;77.67;98469.70;1472922;88;21866;-84
2022/04/02 00:46:12;;;;;;;4.17;2.85;;;;;;;3.12;76.00;98469.70;1502383;86;23017;-87
2022/04/02 00:48:40;;;;;;;4.77;3.10;;;;;;;3.14;76.29;98467.77;1486045;86;21523;-84
2022/04/02 00:51:10;;;;;;;5.17;3.37;;;;;;;3.15;76.87;98479.37;1501199;86;22322;-83
2022/04/02 00:53:40;;;;;;;5.33;3.08;;;;;;;3.09;76.62;98470.81;1480994;86;24117;-84
2022/04/02 00:56:06;;;;;;;4.27;2.90;;;;;;;3.04;76.52;98478.77;1494890;86;21404;-84
2022/04/02 00:58:33;;;;;;;4.47;3.23;;;;;;;3.07;76.95;98471.44;1501697;86;22080;-84
2022/04/02 01:00:59;;;;;;;3.70;3.13;;;;;;;3.02;74.88;98476.77;1490260;86;22029;-83
2022/04/02 01:03:27;;;;;;;6.07;3.60;;;;;;;3.02;74.88;98476.77;1499501;86;22087;-83
2022/04/02 01:05:53;;;;;;;5.53;3.10;;;;;;;2.99;75.87;98464.81;1488692;86;23180;-86
2022/04/02 01:08:19;;;;;;;3.93;3.00;;;;;;;3.04;75.96;98470.42;1497608;86;22146;-86
2022/04/02 01:10:45;;;;;;;3.43;3.03;;;;;;;3.04;76.45;98470.42;1490443;86;22034;-86
2022/04/02 01:13:14;;;;;;;3.07;2.67;;;;;;;3.09;76.70;98479.96;1441072;88;22172;-85
2022/04/02 01:15:39;;;;;;;4.23;2.97;;;;;;;3.05;74.65;98485.62;1485009;87;22374;-83
2022/04/02 01:18:05;;;;;;;4.93;3.50;;;;;;;3.10;76.00;98487.31;1478269;87;22106;-85
2022/04/02 01:20:32;;;;;;;4.03;3.43;;;;;;;3.02;75.20;98499.83;1480304;87;22363;-82
2022/04/02 01:23:00;;;;;;;4.10;3.03;;;;;;;3.03;75.75;98493.63;1485948;87;22047;-84
2022/04/02 01:25:31;;;;;;;4.93;3.13;;;;;;;3.08;76.41;98494.47;1476921;88;22949;-83
2022/04/02 01:27:55;;;;;;;3.17;2.33;;;;;;;2.89;74.41;98492.81;1483428;87;24199;-83
2022/04/02 01:30:21;;;;;;;4.07;3.13;;;;;;;2.89;74.41;98492.81;1486646;87;22062;-86
2022/04/02 01:32:47;;;;;;;3.87;3.20;;;;;;;2.94;74.59;98501.86;1489006;87;21374;-85
2022/04/02 01:35:14;;;;;;;5.10;3.13;;;;;;;2.88;74.87;98497.22;1485694;88;21366;-85
2022/04/02 01:37:40;;;;;;;5.13;3.90;;;;;;;2.83;73.89;98492.91;1483416;87;21417;-85
2022/04/02 01:40:08;;;;;;;6.80;4.10;;;;;;;2.81;73.76;98503.98;1469045;87;23169;-84
2022/04/02 01:42:34;;;;;;;5.13;3.70;;;;;;;2.90;75.09;98497.05;1480480;88;23015;-82
2022/04/02 01:45:00;;;;;;;6.60;4.40;;;;;;;2.87;74.21;98498.17;1474019;88;22039;-85
2022/04/02 01:47:26;;;;;;;4.47;3.60;;;;;;;2.86;74.23;98503.55;1483175;87;21405;-86
2022/04/02 01:49:52;;;;;;;4.23;3.40;;;;;;;2.90;76.15;98500.98;1485431;86;22068;-86
2022/04/02 01:52:20;;;;;;;5.33;3.97;;;;;;;2.90;76.15;98500.98;1476410;87;22033;-85
2022/04/02 01:54:47;;;;;;;4.47;3.57;;;;;;;2.89;75.12;98503.27;1476546;88;21996;-83
2022/04/02 01:57:16;;;;;;;5.13;3.17;;;;;;;2.85;74.80;98507.11;1486727;87;22978;-83
2022/04/02 01:59:44;;;;;;;5.23;3.23;;;;;;;2.75;73.70;98511.58;1481500;87;23081;-82
2022/04/02 02:02:11;;;;;;;4.23;3.60;;;;;;;2.80;75.37;98499.73;1484727;87;21827;-83
2022/04/02 02:04:38;;;;;;;7.10;4.03;;;;;;;2.83;75.21;98509.08;1488866;87;21945;-83
2022/04/02 02:07:05;;;;;;;5.77;3.90;;;;;;;2.85;75.67;98501.89;1480742;87;22121;-83
2022/04/02 02:09:31;;;;;;;4.27;3.10;;;;;;;2.85;75.67;98501.89;1477906;87;21839;-82
2022/04/02 02:11:57;;;;;;;3.23;2.80;;;;;;;2.83;74.67;98509.89;1487485;86;22041;-81
2022/04/02 02:14:23;;;;;;;4.70;3.33;;;;;;;2.81;74.78;98511.00;1478068;87;21837;-81
2022/04/02 02:16:50;;;;;;;5.00;4.23;;;;;;;2.69;74.98;98522.94;1471949;88;21977;-81
2022/04/02 02:19:16;;;;;;;3.30;3.00;;;;;;;2.64;74.65;98527.77;1469323;88;21838;-81
2022/04/02 02:21:42;;;;;;;3.43;2.87;;;;;;;2.64;74.65;98527.77;1463140;88;22218;-81
2022/04/02 02:24:08;;;;;;;5.03;3.73;;;;;;;2.62;74.31;98523.19;1454480;89;21406;-82
2022/04/02 02:26:34;;;;;;;6.70;4.65;;;;;;;2.64;75.16;98526.45;1447522;90;22376;-83
2022/04/02 02:29:06;;;;;;;6.40;4.60;;;;;;;2.61;74.71;98526.75;1447585;90;21936;-82
2022/04/02 02:31:29;;;;;;;5.60;4.37;;;;;;;2.55;74.71;98533.04;1452422;90;22895;-81
2022/04/02 02:36:40;;;;;;;4.93;4.10;;;;;;;2.49;74.60;98522.67;1466377;88;21881;-81
2022/04/02 02:39:06;;;;;;;4.87;3.57;;;;;;;2.49;75.18;98510.92;1456375;89;21826;-82
2022/04/02 02:41:32;;;;;;;6.53;4.70;;;;;;;2.48;74.99;98513.21;1454243;88;21293;-82
2022/04/02 02:43:58;;;;;;;5.40;4.20;;;;;;;2.50;75.64;98512.56;1464396;88;21353;-82
2022/04/02 02:46:24;;;;;;;4.33;3.70;;;;;;;2.48;75.96;98504.07;1466833;88;23936;-82
2022/04/02 02:48:50;;;;;;;5.03;3.60;;;;;;;2.48;75.96;98504.07;1472951;88;23446;-82
2022/04/02 02:51:16;;;;;;;3.97;2.90;;;;;;;2.48;74.86;98517.13;1460878;88;22070;-81
2022/04/02 02:53:44;;;;;;;11.30;5.90;;;;;;;2.47;74.48;98521.98;1471710;88;21985;-82
2022/04/02 02:56:11;;;;;;;4.83;3.83;;;;;;;2.52;75.85;98518.96;1464725;88;21898;-82
2022/04/02 02:58:37;;;;;;;4.83;3.50;;;;;;;2.54;76.80;98523.08;1475266;88;21811;-82
2022/04/02 03:01:06;;;;;;;7.13;3.40;;;;;;;2.56;76.48;98515.93;1478135;87;21894;-81
2022/04/02 03:03:34;;;;;;;5.53;3.67;;;;;;;2.51;76.04;98521.24;1477223;87;21772;-82
2022/04/02 03:06:00;;;;;;;5.23;4.47;;;;;;;2.51;76.04;98521.24;1468029;87;22919;-83
2022/04/02 03:08:26;;;;;;;6.73;4.37;;;;;;;2.53;76.66;98517.50;1450486;88;21760;-83
2022/04/02 03:10:54;;;;;;;4.37;3.60;;;;;;;2.52;76.12;98518.47;1481184;88;21375;-83
2022/04/02 03:13:20;;;;;;;5.87;4.17;;;;;;;2.52;76.28;98519.78;1493643;86;22143;-83
2022/04/02 03:15:47;;;;;;;6.07;4.60;;;;;;;2.52;76.28;98519.78;1459836;89;21850;-83
2022/04/02 03:18:13;;;;;;;5.80;4.03;;;;;;;2.51;76.69;98515.53;1470865;87;21812;-84
2022/04/02 03:20:39;;;;;;;5.17;3.93;;;;;;;2.51;76.69;98515.53;1489046;87;22718;-83
2022/04/02 03:23:05;;;;;;;3.13;2.83;;;;;;;2.51;76.07;98516.02;1483616;87;22806;-82
2022/04/02 03:25:33;;;;;;;7.70;5.17;;;;;;;2.55;76.61;98517.37;1486331;87;21853;-82
2022/04/02 03:27:59;;;;;;;6.13;4.73;;;;;;;2.55;76.61;98517.37;1485021;87;21913;-83
2022/04/02 03:30:26;;;;;;;6.17;3.90;;;;;;;2.57;76.90;98512.34;1481941;87;22040;-84
2022/04/02 03:32:54;;;;;;;7.93;3.80;;;;;;;2.56;76.06;98521.61;1490267;87;22282;-84
2022/04/02 03:35:20;;;;;;;5.90;4.70;;;;;;;2.49;76.50;98511.74;1489797;87;21789;-82
2022/04/02 03:37:49;;;;;;;7.23;4.80;;;;;;;2.56;76.56;98523.77;1479537;87;21667;-82
2022/04/02 03:40:18;;;;;;;4.37;3.87;;;;;;;2.52;76.02;98526.30;1490227;87;21764;-83
2022/04/02 03:42:46;;;;;;;7.17;4.70;;;;;;;2.52;76.02;98526.30;1442800;90;22259;-82
2022/04/02 03:45:15;;;;;;;6.37;4.97;;;;;;;2.49;77.38;98523.50;1439204;89;21790;-82
2022/04/02 03:47:42;;;;;;;5.00;3.97;;;;;;;2.49;76.14;98537.04;1464790;89;21854;-81
2022/04/02 03:50:09;;;;;;;8.33;5.20;;;;;;;2.49;76.14;98537.04;1460264;89;21885;-83
2022/04/02 03:52:36;;;;;;;5.10;4.00;;;;;;;2.44;76.12;98534.02;1454857;89;21952;-83
2022/04/02 03:55:05;;;;;;;7.00;4.87;;;;;;;2.44;76.12;98534.02;1458388;88;21777;-85
2022/04/02 03:57:32;;;;;;;5.63;4.50;;;;;;;2.47;76.18;98538.96;1456943;88;21914;-84
2022/04/02 03:59:58;;;;;;;5.70;4.70;;;;;;;2.47;75.92;98548.95;1465126;88;21875;-85
2022/04/02 04:02:24;;;;;;;10.17;5.47;;;;;;;2.49;76.08;98559.23;1462195;89;22807;-85
2022/04/02 04:04:50;;;;;;;5.00;4.40;;;;;;;2.49;75.59;98564.45;1453423;89;22652;-85
2022/04/02 04:07:16;;;;;;;8.17;5.97;;;;;;;2.49;75.59;98564.45;1458030;89;21822;-85
2022/04/02 04:09:42;;;;;;;6.47;4.87;;;;;;;2.49;76.59;98571.80;1456262;88;21338;-85
2022/04/02 04:12:10;;;;;;;6.33;4.67;;;;;;;2.47;75.30;98574.21;1461104;88;21456;-82
2022/04/02 04:14:37;;;;;;;5.97;4.97;;;;;;;2.52;76.11;98574.63;1483529;88;22706;-82
2022/04/02 04:17:03;;;;;;;6.60;5.77;;;;;;;2.51;75.51;98567.77;1483115;88;21730;-80
2022/04/02 04:19:31;;;;;;;6.37;5.47;;;;;;;2.55;76.69;98573.03;1467179;88;21726;-80
2022/04/02 04:21:58;;;;;;;5.07;4.33;;;;;;;2.43;74.81;98558.02;1481661;88;21905;-80
2022/04/02 04:24:24;;;;;;;7.07;5.20;;;;;;;2.43;74.81;98558.02;1484570;86;22619;-80
2022/04/02 04:26:50;;;;;;;6.40;4.93;;;;;;;2.53;76.25;98574.95;1471088;86;21906;-80
2022/04/02 04:29:16;;;;;;;6.37;4.87;;;;;;;2.54;76.06;98572.70;1485522;87;22528;-82
2022/04/02 04:31:42;;;;;;;7.20;4.30;;;;;;;2.55;76.10;98579.55;1496560;86;22283;-81
2022/04/02 04:34:08;;;;;;;4.97;4.47;;;;;;;2.56;75.70;98579.06;1503242;86;21806;-81
2022/04/02 04:36:34;;;;;;;5.40;3.93;;;;;;;2.55;75.39;98582.17;1493407;86;21804;-82
2022/04/02 04:39:00;;;;;;;3.37;3.00;;;;;;;2.45;74.28;98581.38;1489038;87;21330;-81
2022/04/02 04:41:26;;;;;;;5.57;4.13;;;;;;;2.44;74.45;98588.38;1499512;86;21851;-82
2022/04/02 04:43:52;;;;;;;7.33;5.57;;;;;;;2.44;74.45;98588.38;1499602;86;22132;-82
2022/04/02 04:46:20;;;;;;;7.03;5.50;;;;;;;2.50;75.04;98598.73;1492724;86;21746;-83
2022/04/02 04:48:47;;;;;;;7.43;5.17;;;;;;;2.48;74.88;98606.73;1490042;87;22935;-83
2022/04/02 04:51:14;;;;;;;5.17;3.70;;;;;;;2.44;74.10;98612.36;1440061;89;21929;-81
2022/04/02 04:53:40;;;;;;;6.17;5.13;;;;;;;2.44;74.10;98612.36;1479449;88;22081;-83
2022/04/02 04:56:08;;;;;;;8.70;4.90;;;;;;;2.50;74.90;98619.63;1484344;86;21928;-83
2022/04/02 04:58:35;;;;;;;6.20;4.73;;;;;;;2.57;75.26;98621.22;1492761;86;22709;-84
2022/04/02 05:01:01;;;;;;;6.67;5.23;;;;;;;2.57;75.26;98621.22;1483826;86;21731;-84
2022/04/02 05:03:27;;;;;;;7.10;5.20;;;;;;;2.58;75.37;98628.08;1499009;86;21857;-81
2022/04/02 05:05:56;;;;;;;7.13;5.03;;;;;;;2.57;74.42;98627.26;1497513;86;21761;-81
2022/04/02 05:08:23;;;;;;;6.57;5.17;;;;;;;2.66;74.75;98630.81;1496393;86;21897;-81
2022/04/02 05:10:50;;;;;;;8.57;5.77;;;;;;;2.68;74.81;98637.55;1488135;86;22802;-81
2022/04/02 05:13:16;;;;;;;7.10;4.67;;;;;;;2.69;74.57;98637.88;1491461;86;21978;-83
2022/04/02 05:15:44;;;;;;;7.23;5.17;;;;;;;2.69;74.57;98637.88;1504171;87;21840;-81
2022/04/02 05:18:11;;;;;;;7.90;5.67;;;;;;;2.68;74.91;98634.94;1503179;86;21721;-80
2022/04/02 05:20:39;;;;;;;7.40;5.03;;;;;;;2.66;75.28;98635.55;1501516;86;22779;-81
2022/04/02 05:23:07;;;;;;;8.23;6.60;;;;;;;2.60;74.03;98636.12;1500213;87;21862;-80
2022/04/02 05:25:38;;;;;;;9.30;7.17;;;;;;;2.65;75.39;98643.05;1498411;87;21854;-81
2022/04/02 05:28:05;;;;;;;;;;;;;;;2.65;75.03;98655.30;1467372;88;21943;-80
2022/04/02 05:30:39;;;;;;;9.13;7.07;;;;;;;2.68;75.23;98655.83;1494348;87;20363;-81
2022/04/02 05:33:07;;;;;;;8.43;6.03;;;;;;;2.68;75.78;98650.61;1485321;86;22823;-81
2022/04/02 05:35:33;;;;;;;11.87;7.53;;;;;;;2.61;73.80;98657.83;1487903;87;21825;-81
2022/04/02 05:37:59;;;;;;;8.53;6.53;;;;;;;2.61;74.71;98646.89;1494329;86;21884;-81
2022/04/02 05:40:25;;;;;;;12.33;6.50;;;;;;;2.70;74.80;98659.14;1504528;86;22785;-81
2022/04/02 05:42:51;;;;;;;9.03;7.07;;;;;;;2.81;75.59;98667.77;1502546;86;21374;-80
2022/04/02 05:45:17;;;;;;;8.07;6.33;;;;;;;2.76;73.98;98668.66;1476799;87;22118;-81
2022/04/02 05:47:49;;;;;;;7.13;5.47;;;;;;;2.72;74.61;98666.81;1502721;87;22764;-80
2022/04/02 05:50:18;;;;;;;7.33;6.10;;;;;;;2.81;73.93;98674.30;1493642;86;21278;-81
2022/04/02 05:52:45;;;;;;;9.87;7.63;;;;;;;2.93;75.40;98678.38;1498535;87;22199;-81
2022/04/02 05:55:12;;;;;;;10.33;7.77;;;;;;;2.93;75.40;98678.38;1495940;87;21870;-81
2022/04/02 05:57:41;;;;;;;7.53;5.63;;;;;;;2.94;75.45;98676.13;1485465;87;22074;-81
2022/04/02 06:00:12;;;;;;;9.93;6.63;;;;;;;2.95;74.21;98680.38;1491890;87;21989;-81
2022/04/02 06:02:39;;;;;;;5.67;4.93;;;;;;;3.02;74.77;98678.01;1485230;87;22923;-80
2022/04/02 06:05:08;;;;;;;6.83;5.70;;;;;;;2.88;73.34;98672.78;1494948;87;22073;-80
2022/04/02 06:07:35;;;;;;;7.40;5.97;;;;;;;2.96;74.00;98687.24;1479264;87;22176;-81
2022/04/02 06:10:04;;;;;;;10.00;6.67;;;;;;;3.03;73.70;98677.06;1491873;87;22184;-80
2022/04/02 06:12:32;;;;;;;10.57;7.27;;;;;;;3.03;73.70;98677.06;1499252;86;22045;-80
2022/04/02 06:14:59;;;;;;;8.33;6.70;;;;;;;3.12;74.32;98683.56;1496751;87;22185;-80
2022/04/02 06:17:26;;;;;;;6.73;5.70;;;;;;;3.20;74.66;98687.27;1475415;87;22093;-80
2022/04/02 06:19:52;;;;;;;7.50;6.30;;;;;;;3.17;73.46;98688.38;1492475;87;22953;-80
2022/04/02 06:22:19;;;;;;;7.50;5.47;;;;;;;3.17;73.46;98688.38;1501040;86;22088;-80
2022/04/02 06:24:45;;;;;;;10.50;7.60;;;;;;;3.09;72.07;98690.37;1490516;86;22052;-81
2022/04/02 06:27:11;;;;;;;7.10;4.63;;;;;;;3.18;73.47;98688.70;1484458;87;23007;-81
2022/04/02 06:29:37;;;;;;;7.57;5.77;;;;;;;3.07;71.32;98689.69;1486240;87;23484;-81
2022/04/02 06:32:04;;;;;;;7.57;6.03;;;;;;;3.10;72.51;98694.63;1484722;87;22059;-80
2022/04/02 06:34:30;;;;;;;8.10;5.87;;;;;;;3.20;72.85;98688.58;1484267;87;22446;-80
2022/04/02 06:36:56;;;;;;;8.63;6.43;;;;;;;3.09;72.39;98680.41;1495090;86;21352;-78
2022/04/02 06:39:22;;;;;;;8.33;6.70;;;;;;;3.14;72.68;98684.25;1486788;87;21375;-78
2022/04/02 06:41:48;;;;;;;8.10;6.53;;;;;;;3.26;73.26;98686.69;1497084;86;21478;-79
2022/04/02 06:44:15;;;;;;;7.93;6.77;;;;;;;3.23;71.75;98692.20;1486916;86;22088;-80
2022/04/02 06:46:42;;;;;;;9.43;5.77;;;;;;;3.25;72.23;98699.16;1451569;88;22234;-80
2022/04/02 06:49:09;;;;;;;8.60;6.70;;;;;;;3.18;71.52;98699.16;1466986;88;22334;-80
2022/04/02 06:51:36;;;;;;;8.60;6.50;;;;;;;3.21;70.79;98703.28;1482865;88;22190;-79
2022/04/02 06:54:05;;;;;;;9.73;7.63;;;;;;;3.28;72.72;98704.34;1474287;88;22057;-79
2022/04/02 06:56:31;;;;;;;8.27;5.87;;;;;;;3.37;73.17;98704.81;1464953;86;23019;-79
2022/04/02 06:58:57;;;;;;;7.87;5.83;;;;;;;3.43;73.23;98708.64;1502592;86;22279;-80
2022/04/02 07:01:24;;;;;;;7.77;6.30;;;;;;;3.38;70.59;98706.45;1516711;86;22072;-79
2022/04/02 07:03:49;;;;;;;11.03;7.77;;;;;;;3.37;71.67;98707.43;1502202;86;23991;-79
2022/04/02 07:06:15;;;;;;;9.20;6.80;;;;;;;3.48;73.03;98705.94;1506584;86;21970;-79
2022/04/02 07:08:41;;;;;;;10.87;7.00;;;;;;;3.56;72.64;98706.02;1496851;86;21440;-79
2022/04/02 07:11:07;;;;;;;7.23;6.00;;;;;;;3.58;71.76;98714.55;1469839;86;22526;-79
2022/04/02 07:13:33;;;;;;;8.03;4.97;;;;;;;3.70;72.48;98709.95;1501076;86;21389;-80
2022/04/02 07:15:59;;;;;;;10.23;7.00;;;;;;;3.54;70.96;98713.20;1505479;86;21403;-79
2022/04/02 07:18:26;;;;;;;7.73;6.43;;;;;;;3.72;72.12;98726.83;1503903;86;21373;-78
2022/04/02 07:20:53;;;;;;;9.20;6.73;;;;;;;3.64;70.75;98714.45;1511241;86;22267;-79
2022/04/02 07:23:20;;;;;;;7.40;5.07;;;;;;;3.58;70.76;98723.70;1506472;86;21308;-79
2022/04/02 07:25:49;;;;;;;11.73;8.17;;;;;;;3.79;71.55;98718.72;1506726;86;21345;-80
2022/04/02 07:28:15;;;;;;;11.07;7.20;;;;;;;3.79;71.55;98718.72;1481621;88;21439;-80
2022/04/02 07:30:41;;;;;;;7.50;6.23;;;;;;;3.91;72.45;98710.99;1485560;87;22357;-80
2022/04/02 07:33:07;;;;;;;8.37;6.13;;;;;;;4.11;71.97;98709.57;1478300;86;22307;-81
2022/04/02 07:35:50;;;;;;;8.47;5.70;;;;;;;4.21;69.97;98723.43;1444445;90;21344;-80
2022/04/02 07:38:30;;;;;;;8.23;6.40;;;;;;;4.16;70.63;98717.81;1491512;87;21323;-81
2022/04/02 07:41:22;;;;;;;9.90;6.77;;;;;;;4.26;70.32;98727.74;1427425;91;21310;-81
2022/04/02 07:43:52;;;;;;;8.23;6.60;;;;;;;4.25;69.26;98730.00;1438394;89;21510;-82
2022/04/02 07:46:23;;;;;;;8.63;6.20;;;;;;;4.20;68.15;98733.55;1512214;86;22347;-80
2022/04/02 07:48:50;;;;;;;8.17;6.40;;;;;;;4.28;69.31;98738.38;1509403;86;21425;-81
2022/04/02 07:51:21;;;;;;;8.07;5.50;;;;;;;4.30;69.62;98740.87;1488627;86;21382;-81
2022/04/02 07:53:50;;;;;;;;;;;;;;;4.28;69.99;98743.62;1455783;89;22343;-81
2022/04/02 07:56:33;;;;;;;7.83;5.77;;;;;;;4.20;68.77;98737.48;1448301;88;20410;-80
2022/04/02 07:59:03;;;;;;;6.83;5.43;;;;;;;4.30;69.62;98737.75;1484207;87;21389;-81
2022/04/02 08:01:30;;;;;;;10.45;6.85;;;;;;;4.28;70.38;98737.56;1479507;88;21589;-80
2022/04/02 08:03:58;;;;;;;10.20;7.33;;;;;;;4.33;69.41;98738.44;1475737;88;21424;-80
2022/04/02 08:06:25;;;;;;;6.90;5.57;;;;;;;4.35;69.03;98745.18;1455040;88;21873;-81
2022/04/02 08:08:53;;;;;;;18.50;11.10;;;;;;;4.41;68.83;98740.65;1478365;88;21460;-80
2022/04/02 08:11:19;;;;;;;34.40;24.20;;;;;;;4.44;69.04;98741.66;1451379;89;23192;-80
2022/04/02 08:13:46;;;;;;;14.37;11.60;;;;;;;4.68;70.57;98742.35;1460589;87;21261;-80
2022/04/02 08:16:13;;;;;;;8.03;6.40;;;;;;;4.86;70.48;98738.88;1470633;87;21287;-90
2022/04/02 08:18:39;;;;;;;9.07;6.73;;;;;;;4.90;70.21;98745.00;1482063;86;21330;-88
2022/04/02 08:21:08;;;;;;;9.50;5.33;;;;;;;4.96;68.72;98748.31;1483381;87;21370;-91
2022/04/02 08:23:36;;;;;;;13.73;9.50;;;;;;;5.14;67.28;98754.83;1483263;86;22408;-89
2022/04/02 08:26:20;;;;;;;8.57;6.57;;;;;;;5.40;67.17;98750.06;1490708;86;22299;-89
2022/04/02 08:29:01;;;;;;;8.70;6.53;;;;;;;5.57;66.62;98755.73;1489853;86;22453;-90
2022/04/02 08:31:40;;;;;;;7.58;6.05;;;;;;;5.71;67.03;98749.08;1474354;89;21499;-90
2022/04/02 08:34:46;;;;;;;9.47;5.37;;;;;;;6.02;67.31;98745.95;1480587;88;21453;-91
2022/04/02 08:37:35;;;;;;;7.63;5.67;;;;;;;6.23;64.97;98746.33;1477854;88;21445;-90
2022/04/02 08:40:38;;;;;;;11.80;6.10;;;;;;;6.37;62.57;98754.58;1462619;88;21456;-87
2022/04/02 08:43:43;;;;;;;5.17;4.17;;;;;;;6.52;64.33;98745.88;1460795;88;21457;-89
2022/04/02 08:46:35;;;;;;;6.17;4.73;;;;;;;6.03;63.07;98737.09;1459694;88;21427;-92
2022/04/02 08:49:34;;;;;;;7.27;5.43;;;;;;;6.18;64.36;98754.36;1460368;87;21582;-92
2022/04/02 08:52:23;;;;;;;7.37;5.33;;;;;;;6.36;63.23;98752.91;1478581;88;21385;-93
2022/04/02 08:55:19;;;;;;;7.70;5.67;;;;;;;6.24;60.81;98758.97;1439558;90;21487;-90
2022/04/02 08:58:03;;;;;;;9.07;6.47;;;;;;;6.42;64.61;98759.69;1438702;90;21464;-89
2022/04/02 09:00:35;;;;;;;5.67;4.87;;;;;;;6.66;64.48;98762.83;1440262;90;21419;-94
2022/04/02 09:03:40;;;;;;;5.87;4.87;;;;;;;6.72;62.47;98760.85;1439195;90;21428;-88
2022/04/02 09:06:45;;;;;;;6.70;5.17;;;;;;;6.60;61.01;98757.41;1469912;88;21445;-91
2022/04/02 09:10:06;;;;;;;8.10;6.50;;;;;;;6.94;62.40;98757.25;1491852;86;21461;-89
2022/04/02 09:13:02;;;;;;;11.88;6.17;;;;;;;7.02;62.39;98755.94;1507220;86;21432;-89
2022/04/02 09:16:08;;;;;;;25.03;14.30;;;;;;;7.24;61.71;98757.86;1504106;86;23367;-93
2022/04/02 09:19:20;;;;;;;6.97;5.33;;;;;;;7.49;61.75;98757.83;1497713;86;21307;-91
2022/04/02 09:22:22;;;;;;;5.03;4.03;;;;;;;6.93;59.83;98755.59;1488984;86;21918;-94
2022/04/02 09:25:46;;;;;;;5.90;4.50;;;;;;;6.68;60.45;98755.61;1506692;86;21365;-92
2022/04/02 09:29:11;;;;;;;5.47;4.57;;;;;;;6.39;62.29;98764.41;1503276;86;21418;-91
2022/04/02 09:31:54;;;;;;;10.87;7.73;;;;;;;6.52;62.36;98765.59;1495831;86;22437;-88
2022/04/02 09:34:49;;;;;;;5.40;4.50;;;;;;;6.89;61.99;98760.87;1496106;86;21340;-89
2022/04/02 09:37:56;;;;;;;5.73;4.00;;;;;;;6.99;61.52;98762.81;1481467;86;22323;-90
2022/04/02 09:41:10;;;;;;;5.30;4.10;;;;;;;6.62;60.45;98766.78;1484324;86;21996;-90
2022/04/02 09:43:55;;;;;;;3.50;3.00;;;;;;;7.09;60.63;98766.11;1471696;86;21355;-90
2022/04/02 09:46:48;;;;;;;6.73;4.93;;;;;;;7.41;57.62;98772.32;1482624;86;21410;-90
2022/04/02 09:49:48;;;;;;;5.00;3.83;;;;;;;7.44;60.30;98774.61;1502361;86;21359;-91
2022/04/02 09:52:20;;;;;;;5.30;4.80;;;;;;;7.22;58.60;98780.06;1469026;86;21425;-87
2022/04/02 09:55:13;;;;;;;5.97;4.93;;;;;;;7.45;60.14;98782.83;1498780;86;21381;-90
2022/04/02 09:58:11;;;;;;;5.63;3.73;;;;;;;7.77;59.32;98780.63;1504864;86;21400;-90
2022/04/02 10:01:09;;;;;;;6.63;4.63;;;;;;;7.47;56.79;98783.48;1514016;86;22429;-89
2022/04/02 10:04:21;;;;;;;4.17;3.23;;;;;;;7.52;57.78;98789.08;1468155;89;21403;-94
2022/04/02 10:06:49;;;;;;;6.27;5.50;;;;;;;6.96;56.27;98794.71;1463390;89;21381;-93
2022/04/02 10:09:22;;;;;;;7.23;6.07;;;;;;;6.95;58.22;98811.49;1506146;86;21433;-89
2022/04/02 10:11:56;;;;;;;10.40;6.57;;;;;;;7.39;59.60;98807.19;1506040;86;21462;-88
2022/04/02 10:14:25;;;;;;;4.43;3.90;;;;;;;7.73;59.52;98804.83;1503478;86;21351;-91
2022/04/02 10:16:58;;;;;;;4.97;4.30;;;;;;;7.86;57.52;98806.45;1510525;86;21427;-89
2022/04/02 10:19:39;;;;;;;7.13;5.63;;;;;;;7.93;57.60;98810.53;1503960;86;21425;-88
2022/04/02 10:22:11;;;;;;;5.37;4.47;;;;;;;8.05;57.99;98813.92;1500314;86;21447;-89
2022/04/02 10:24:50;;;;;;;4.87;3.90;;;;;;;7.85;55.97;98821.91;1501676;86;21444;-94
2022/04/02 10:27:35;;;;;;;6.07;4.90;;;;;;;7.08;56.23;98827.62;1507679;86;21402;-94
2022/04/02 10:30:09;;;;;;;4.37;3.80;;;;;;;6.98;58.65;98829.08;1505032;86;23183;-92
2022/04/02 10:35:50;;;;;;;5.43;4.63;;;;;;;6.67;58.54;98826.23;1501142;86;21403;-92
2022/04/02 10:38:39;;;;;;;6.57;4.50;;;;;;;6.37;59.50;98818.95;1479725;87;22284;-93
2022/04/02 10:41:13;;;;;;;5.30;4.53;;;;;;;6.60;60.79;98820.00;1466525;89;21360;-90
2022/04/02 10:43:45;;;;;;;5.23;4.20;;;;;;;6.73;59.49;98815.10;1504207;86;21533;-93
2022/04/02 10:46:14;;;;;;;5.47;4.53;;;;;;;6.76;60.28;98821.81;1446494;89;21440;-92
2022/04/02 10:49:03;;;;;;;5.53;4.40;;;;;;;6.77;60.44;98819.04;1480482;88;21394;-93
2022/04/02 10:51:27;;;;;;;4.97;4.20;;;;;;;6.74;59.58;98823.80;1473789;88;21416;-91
2022/04/02 10:54:13;;;;;;;8.37;5.20;;;;;;;6.45;58.25;98838.20;1458436;88;22305;-88
2022/04/02 10:56:48;;;;;;;7.47;4.50;;;;;;;6.93;60.01;98835.81;1481042;88;21371;-89
2022/04/02 10:59:21;;;;;;;5.43;4.67;;;;;;;7.18;59.64;98834.84;1442807;88;21342;-90
2022/04/02 11:01:52;;;;;;;8.37;5.97;;;;;;;7.18;59.30;98830.89;1470238;88;22502;-89
2022/04/02 11:04:56;;;;;;;4.83;4.10;;;;;;;7.13;60.54;98835.81;1474902;87;21382;-87
2022/04/02 11:07:37;;;;;;;7.27;4.70;;;;;;;7.02;60.44;98834.86;1454674;89;21412;-89
2022/04/02 11:10:04;;;;;;;9.60;5.72;;;;;;;6.92;60.05;98830.23;1466083;88;22419;-88
2022/04/02 11:12:39;;;;;;;6.57;5.40;;;;;;;7.19;59.96;98841.77;1459246;88;21336;-88
2022/04/02 11:15:16;;;;;;;6.00;4.77;;;;;;;7.05;57.87;98846.36;1457825;88;21563;-87
2022/04/02 11:17:46;;;;;;;4.57;3.90;;;;;;;7.01;59.15;98844.53;1440046;89;21349;-87
2022/04/02 11:20:17;;;;;;;4.78;4.25;;;;;;;7.30;59.34;98848.48;1441025;89;21355;-88
2022/04/02 11:22:57;;;;;;;8.13;4.90;;;;;;;7.40;59.07;98854.41;1445414;89;21342;-86
2022/04/02 11:25:35;;;;;;;4.70;4.05;;;;;;;7.20;58.01;98853.11;1428659;89;21430;-88
2022/04/02 11:28:23;;;;;;;4.60;4.00;;;;;;;7.24;57.87;98853.91;1427841;90;21488;-88
2022/04/02 11:30:53;;;;;;;5.53;4.53;;;;;;;7.38;58.01;98848.48;1440586;89;21431;-93
2022/04/02 11:33:26;;;;;;;8.98;5.97;;;;;;;7.72;57.80;98847.96;1436315;89;22309;-88
2022/04/02 11:36:04;;;;;;;7.27;4.23;;;;;;;7.68;59.13;98839.55;1455604;89;21451;-90
2022/04/02 11:38:39;;;;;;;5.80;5.10;;;;;;;7.51;57.75;98849.78;1432299;89;21440;-86
2022/04/02 11:41:24;;;;;;;8.03;5.40;;;;;;;7.37;58.54;98856.56;1441995;90;21509;-89
2022/04/02 11:43:54;;;;;;;5.30;4.23;;;;;;;7.64;58.83;98845.66;1451452;89;21464;-91
2022/04/02 11:46:21;;;;;;;4.75;4.10;;;;;;;7.64;56.04;98844.34;1442539;89;21456;-90
2022/04/02 11:48:59;;;;;;;3.80;3.20;;;;;;;7.23;57.47;98850.96;1428056;91;21427;-90
2022/04/02 11:51:29;;;;;;;4.90;3.77;;;;;;;7.10;57.38;98847.98;1454473;89;22483;-88
2022/04/02 11:54:10;;;;;;;5.40;4.12;;;;;;;7.17;59.16;98848.99;1443260;89;22387;-90
2022/04/02 11:56:47;;;;;;;;;;;;;;;7.33;58.83;98856.55;1459942;88;21389;-89
2022/04/02 11:59:17;;;;;;;5.50;3.70;;;;;;;7.52;60.06;98852.77;1539997;89;20253;-93
2022/04/02 12:01:50;;;;;;;5.37;3.67;;;;;;;7.51;57.36;98847.15;1468447;88;21367;-88
2022/04/02 12:04:22;;;;;;;5.20;3.93;;;;;;;7.13;56.80;98854.23;1459434;88;21352;-90
2022/04/02 12:06:50;;;;;;;3.87;3.30;;;;;;;6.92;57.33;98859.16;1458212;88;22381;-93
2022/04/02 12:09:23;;;;;;;4.57;3.37;;;;;;;6.93;57.09;98860.33;1459112;89;21426;-89
2022/04/02 12:11:59;;;;;;;6.17;4.37;;;;;;;6.98;57.94;98856.70;1514384;89;21359;-89